Fish Lake Valley, Nevada Weather observations

Data are for 10 minute period ending at time listed.
 Day   Time    Ave.   Ave.  Ave.  Vector   Max.   Stn.    Total    Solar   Ave.  
  of    of     Air    Rel.  Wind   Wind    Wind   Baro.  Precip.   Rad.    Soil  
Year   Day     Temp.  Hum.  Speed  Dir.    Gust   Pres.                    Temp. 
2014   (PST)    F      %     mph   deg.    mph     mb.     in.     W/m2     F    
--------------------------------------------------------------------------------- 
 239    3:00   46.7    68    3.3   131      6.0   857.0    0.00       0    75.5  
 239    4:00   45.8    67    2.5   112      5.1   857.0    0.00       0    74.8  
 239    5:00   44.5    72    4.0   159      6.3   858.0    0.00       0    74.1  
 239    6:00   43.1    74    2.6   141      4.3   858.0    0.00      25    73.4  
 239    7:00   52.1    66    2.2   111      4.8   859.0    0.00     222    72.7  
 239    8:00   62.9    46    2.4   348      5.4   859.0    0.00     439    72.1  
 239    9:00   68.4    33    4.0   344      6.6   860.0    0.00     646    71.4  
 239   10:00   74.9    26    4.9   324     13.3   860.0    0.00     814    70.9  
 239   11:00   78.2    22    7.4   311     13.7   859.0    0.00     931    70.7  
 239   12:00   80.8    18    6.6   292     14.2   858.0    0.00     988    70.8  
 239   13:00   82.8    18    6.0   298     13.2   858.0    0.00     979    71.2  
 239   14:00   84.2    17    5.9   306     13.9   857.0    0.00     905    71.9  
 239   15:00   85.1    18    4.1   328     13.3   856.0    0.00     773    72.9  
 239   16:00   86.9    17    3.6   295      8.8   856.0    0.00     589    74.1  
 239   17:00   85.1    18    4.8   307     10.4   856.0    0.00     381    75.3  
 239   18:00   84.1    15    4.9   296      9.2   855.0    0.00     154    76.4  
 239   19:00   76.7    19    4.2   253      6.1   856.0    0.00       5    77.4  
 239   20:00   72.7    24    2.8   100      9.0   856.0    0.00       0    78.0  
 239   21:00   62.7    45    5.2   157      7.4   857.0    0.00       0    78.4  
 239   22:00   59.0    56    3.2   126      4.6   857.0    0.00       0    78.3  
 239   23:00   56.8    56    3.2   130      5.8   857.0    0.00       0    78.1  
 240    0:00   55.7    55    2.8   104      5.7   857.0    0.00       0    77.6  
 240    1:00   55.3    53    3.2   116      6.5   857.0    0.00       0    77.1  
 240    2:00   52.1    58    2.5   121      4.3   858.0    0.00       0    76.4  

Return to Fish Lake Valley, Nevada graphs page.


Western Regional Climate Center,wrcc@dri.edu